sensor_id;sensor_type;location;lat;lon;timestamp;P1;durP1;ratioP1;P2;durP2;ratioP2
16510;SDS011;8368;48.772;8.754;2022-11-20T00:01:07;3.73;;;2.87;;
16510;SDS011;8368;48.772;8.754;2022-11-20T00:03:34;2.80;;;2.60;;
16510;SDS011;8368;48.772;8.754;2022-11-20T00:06:00;2.37;;;2.27;;
16510;SDS011;8368;48.772;8.754;2022-11-20T00:08:26;2.77;;;2.57;;
16510;SDS011;8368;48.772;8.754;2022-11-20T00:10:52;5.17;;;4.77;;
16510;SDS011;8368;48.772;8.754;2022-11-20T00:13:17;7.13;;;6.43;;
16510;SDS011;8368;48.772;8.754;2022-11-20T00:15:43;7.20;;;6.50;;
16510;SDS011;8368;48.772;8.754;2022-11-20T00:18:09;5.70;;;5.20;;
16510;SDS011;8368;48.772;8.754;2022-11-20T00:20:34;3.60;;;3.10;;
16510;SDS011;8368;48.772;8.754;2022-11-20T00:23:00;4.70;;;4.30;;
16510;SDS011;8368;48.772;8.754;2022-11-20T00:25:25;3.37;;;3.07;;
16510;SDS011;8368;48.772;8.754;2022-11-20T00:27:51;4.03;;;2.87;;
16510;SDS011;8368;48.772;8.754;2022-11-20T00:30:17;3.73;;;2.83;;
16510;SDS011;8368;48.772;8.754;2022-11-20T00:32:42;5.30;;;3.03;;
16510;SDS011;8368;48.772;8.754;2022-11-20T00:35:08;3.50;;;3.20;;
16510;SDS011;8368;48.772;8.754;2022-11-20T00:37:33;5.17;;;3.73;;
16510;SDS011;8368;48.772;8.754;2022-11-20T00:39:59;4.27;;;3.13;;
16510;SDS011;8368;48.772;8.754;2022-11-20T00:42:25;3.40;;;3.20;;
16510;SDS011;8368;48.772;8.754;2022-11-20T00:44:50;3.20;;;2.90;;
16510;SDS011;8368;48.772;8.754;2022-11-20T00:47:16;3.83;;;3.07;;
16510;SDS011;8368;48.772;8.754;2022-11-20T00:49:41;3.90;;;3.50;;
16510;SDS011;8368;48.772;8.754;2022-11-20T00:52:07;4.23;;;3.63;;
16510;SDS011;8368;48.772;8.754;2022-11-20T00:54:32;4.00;;;3.27;;
16510;SDS011;8368;48.772;8.754;2022-11-20T00:56:58;3.67;;;3.30;;
16510;SDS011;8368;48.772;8.754;2022-11-20T00:59:23;3.83;;;3.00;;
16510;SDS011;8368;48.772;8.754;2022-11-20T01:01:49;3.77;;;2.83;;
16510;SDS011;8368;48.772;8.754;2022-11-20T01:04:14;4.50;;;3.13;;
16510;SDS011;8368;48.772;8.754;2022-11-20T01:06:40;3.03;;;2.83;;
16510;SDS011;8368;48.772;8.754;2022-11-20T01:09:07;5.13;;;2.97;;
16510;SDS011;8368;48.772;8.754;2022-11-20T01:11:38;3.33;;;2.60;;
16510;SDS011;8368;48.772;8.754;2022-11-20T01:14:06;2.70;;;2.50;;
16510;SDS011;8368;48.772;8.754;2022-11-20T01:16:35;2.63;;;2.20;;
16510;SDS011;8368;48.772;8.754;2022-11-20T01:19:06;2.80;;;2.60;;
16510;SDS011;8368;48.772;8.754;2022-11-20T01:21:35;2.87;;;2.67;;
16510;SDS011;8368;48.772;8.754;2022-11-20T01:24:02;2.83;;;2.60;;
16510;SDS011;8368;48.772;8.754;2022-11-20T01:26:33;2.60;;;2.40;;
16510;SDS011;8368;48.772;8.754;2022-11-20T01:29:00;2.30;;;2.20;;
16510;SDS011;8368;48.772;8.754;2022-11-20T01:31:34;2.83;;;2.63;;
16510;SDS011;8368;48.772;8.754;2022-11-20T01:34:02;2.50;;;2.30;;
16510;SDS011;8368;48.772;8.754;2022-11-20T01:36:32;2.57;;;2.37;;
16510;SDS011;8368;48.772;8.754;2022-11-20T01:39:02;3.97;;;2.53;;
16510;SDS011;8368;48.772;8.754;2022-11-20T01:41:30;5.37;;;2.27;;
16510;SDS011;8368;48.772;8.754;2022-11-20T01:44:17;2.47;;;2.13;;
16510;SDS011;8368;48.772;8.754;2022-11-20T01:47:03;2.40;;;2.30;;
16510;SDS011;8368;48.772;8.754;2022-11-20T01:49:37;2.77;;;2.43;;
16510;SDS011;8368;48.772;8.754;2022-11-20T01:52:13;2.60;;;2.40;;
16510;SDS011;8368;48.772;8.754;2022-11-20T01:54:44;2.53;;;2.33;;
16510;SDS011;8368;48.772;8.754;2022-11-20T01:57:20;2.53;;;2.33;;
16510;SDS011;8368;48.772;8.754;2022-11-20T01:59:52;2.47;;;2.30;;
16510;SDS011;8368;48.772;8.754;2022-11-20T02:02:22;2.33;;;2.20;;
16510;SDS011;8368;48.772;8.754;2022-11-20T02:04:49;3.00;;;2.63;;
16510;SDS011;8368;48.772;8.754;2022-11-20T02:07:19;3.00;;;2.80;;
16510;SDS011;8368;48.772;8.754;2022-11-20T02:09:45;4.30;;;2.90;;
16510;SDS011;8368;48.772;8.754;2022-11-20T02:12:11;4.43;;;4.07;;
16510;SDS011;8368;48.772;8.754;2022-11-20T02:14:57;4.37;;;4.07;;
16510;SDS011;8368;48.772;8.754;2022-11-20T02:17:23;4.10;;;3.80;;
16510;SDS011;8368;48.772;8.754;2022-11-20T02:19:49;4.00;;;3.70;;
16510;SDS011;8368;48.772;8.754;2022-11-20T02:22:18;6.83;;;3.90;;
16510;SDS011;8368;48.772;8.754;2022-11-20T02:24:50;3.67;;;3.37;;
16510;SDS011;8368;48.772;8.754;2022-11-20T02:27:16;3.60;;;3.40;;
16510;SDS011;8368;48.772;8.754;2022-11-20T02:30:00;5.43;;;3.80;;
16510;SDS011;8368;48.772;8.754;2022-11-20T02:32:28;3.30;;;3.03;;
16510;SDS011;8368;48.772;8.754;2022-11-20T02:35:06;3.73;;;3.43;;
16510;SDS011;8368;48.772;8.754;2022-11-20T02:37:53;2.93;;;2.77;;
16510;SDS011;8368;48.772;8.754;2022-11-20T02:40:20;3.60;;;3.30;;
16510;SDS011;8368;48.772;8.754;2022-11-20T02:42:46;3.97;;;3.00;;
16510;SDS011;8368;48.772;8.754;2022-11-20T02:45:12;3.30;;;3.10;;
16510;SDS011;8368;48.772;8.754;2022-11-20T02:47:38;3.63;;;3.30;;
16510;SDS011;8368;48.772;8.754;2022-11-20T02:50:04;4.77;;;3.23;;
16510;SDS011;8368;48.772;8.754;2022-11-20T02:52:30;5.00;;;3.47;;
16510;SDS011;8368;48.772;8.754;2022-11-20T02:54:56;3.57;;;3.37;;
16510;SDS011;8368;48.772;8.754;2022-11-20T02:57:21;3.50;;;3.20;;
16510;SDS011;8368;48.772;8.754;2022-11-20T02:59:47;3.97;;;3.57;;
16510;SDS011;8368;48.772;8.754;2022-11-20T03:02:12;5.63;;;3.57;;
16510;SDS011;8368;48.772;8.754;2022-11-20T03:04:38;3.30;;;3.10;;
16510;SDS011;8368;48.772;8.754;2022-11-20T03:07:03;4.10;;;3.70;;
16510;SDS011;8368;48.772;8.754;2022-11-20T03:09:29;3.53;;;3.33;;
16510;SDS011;8368;48.772;8.754;2022-11-20T03:11:55;3.17;;;2.97;;
16510;SDS011;8368;48.772;8.754;2022-11-20T03:14:21;3.00;;;2.80;;
16510;SDS011;8368;48.772;8.754;2022-11-20T03:16:46;3.00;;;2.80;;
16510;SDS011;8368;48.772;8.754;2022-11-20T03:19:12;2.93;;;2.80;;
16510;SDS011;8368;48.772;8.754;2022-11-20T03:21:38;2.73;;;2.57;;
16510;SDS011;8368;48.772;8.754;2022-11-20T03:24:04;4.37;;;3.10;;
16510;SDS011;8368;48.772;8.754;2022-11-20T03:26:30;3.13;;;2.93;;
16510;SDS011;8368;48.772;8.754;2022-11-20T03:29:00;4.00;;;3.00;;
16510;SDS011;8368;48.772;8.754;2022-11-20T03:31:28;4.03;;;3.20;;
16510;SDS011;8368;48.772;8.754;2022-11-20T03:33:59;3.17;;;2.97;;
16510;SDS011;8368;48.772;8.754;2022-11-20T03:36:25;2.97;;;2.77;;
16510;SDS011;8368;48.772;8.754;2022-11-20T03:38:52;2.33;;;2.23;;
16510;SDS011;8368;48.772;8.754;2022-11-20T03:41:20;3.00;;;2.70;;
16510;SDS011;8368;48.772;8.754;2022-11-20T03:43:51;2.47;;;2.37;;
16510;SDS011;8368;48.772;8.754;2022-11-20T03:46:18;2.60;;;2.50;;
16510;SDS011;8368;48.772;8.754;2022-11-20T03:48:44;4.80;;;3.03;;
16510;SDS011;8368;48.772;8.754;2022-11-20T03:53:41;3.40;;;2.37;;
16510;SDS011;8368;48.772;8.754;2022-11-20T03:56:08;3.00;;;2.50;;
16510;SDS011;8368;48.772;8.754;2022-11-20T03:58:36;4.40;;;2.23;;
16510;SDS011;8368;48.772;8.754;2022-11-20T04:01:10;2.33;;;2.23;;
16510;SDS011;8368;48.772;8.754;2022-11-20T04:03:38;2.97;;;2.33;;
16510;SDS011;8368;48.772;8.754;2022-11-20T04:06:05;2.30;;;2.07;;
16510;SDS011;8368;48.772;8.754;2022-11-20T04:08:32;3.77;;;2.30;;
16510;SDS011;8368;48.772;8.754;2022-11-20T04:11:07;2.70;;;2.50;;
16510;SDS011;8368;48.772;8.754;2022-11-20T04:13:45;2.30;;;2.20;;
16510;SDS011;8368;48.772;8.754;2022-11-20T04:16:12;2.10;;;2.00;;
16510;SDS011;8368;48.772;8.754;2022-11-20T04:18:38;2.00;;;1.90;;
16510;SDS011;8368;48.772;8.754;2022-11-20T04:21:04;1.77;;;1.73;;
16510;SDS011;8368;48.772;8.754;2022-11-20T04:23:31;2.23;;;2.10;;
16510;SDS011;8368;48.772;8.754;2022-11-20T04:26:07;2.87;;;2.20;;
16510;SDS011;8368;48.772;8.754;2022-11-20T04:28:34;1.60;;;1.60;;
16510;SDS011;8368;48.772;8.754;2022-11-20T04:31:01;1.60;;;1.60;;
16510;SDS011;8368;48.772;8.754;2022-11-20T04:33:27;2.63;;;1.30;;
16510;SDS011;8368;48.772;8.754;2022-11-20T04:35:53;3.20;;;1.80;;
16510;SDS011;8368;48.772;8.754;2022-11-20T04:38:19;2.10;;;1.90;;
16510;SDS011;8368;48.772;8.754;2022-11-20T04:40:44;1.87;;;1.77;;
16510;SDS011;8368;48.772;8.754;2022-11-20T04:43:10;1.73;;;1.63;;
16510;SDS011;8368;48.772;8.754;2022-11-20T04:45:35;2.00;;;1.60;;
16510;SDS011;8368;48.772;8.754;2022-11-20T04:48:01;1.50;;;1.40;;
16510;SDS011;8368;48.772;8.754;2022-11-20T04:50:26;1.50;;;1.50;;
16510;SDS011;8368;48.772;8.754;2022-11-20T04:52:52;1.90;;;1.80;;
16510;SDS011;8368;48.772;8.754;2022-11-20T04:55:17;2.53;;;1.60;;
16510;SDS011;8368;48.772;8.754;2022-11-20T04:57:43;1.40;;;1.40;;
16510;SDS011;8368;48.772;8.754;2022-11-20T05:00:08;1.67;;;1.60;;
16510;SDS011;8368;48.772;8.754;2022-11-20T05:02:34;1.73;;;1.50;;
16510;SDS011;8368;48.772;8.754;2022-11-20T05:05:00;1.63;;;1.60;;
16510;SDS011;8368;48.772;8.754;2022-11-20T05:07:25;1.87;;;1.77;;
16510;SDS011;8368;48.772;8.754;2022-11-20T05:09:51;1.90;;;1.73;;
16510;SDS011;8368;48.772;8.754;2022-11-20T05:12:16;1.57;;;1.47;;
16510;SDS011;8368;48.772;8.754;2022-11-20T05:14:42;1.60;;;1.60;;
16510;SDS011;8368;48.772;8.754;2022-11-20T05:17:09;1.40;;;1.40;;
16510;SDS011;8368;48.772;8.754;2022-11-20T05:19:35;1.17;;;1.17;;
16510;SDS011;8368;48.772;8.754;2022-11-20T05:22:01;1.30;;;1.30;;
16510;SDS011;8368;48.772;8.754;2022-11-20T05:24:26;4.50;;;1.40;;
16510;SDS011;8368;48.772;8.754;2022-11-20T05:26:52;1.57;;;1.47;;
16510;SDS011;8368;48.772;8.754;2022-11-20T05:29:18;1.33;;;1.00;;
16510;SDS011;8368;48.772;8.754;2022-11-20T05:31:43;1.40;;;1.30;;
16510;SDS011;8368;48.772;8.754;2022-11-20T05:34:09;1.00;;;1.00;;
16510;SDS011;8368;48.772;8.754;2022-11-20T05:36:34;1.30;;;1.20;;
16510;SDS011;8368;48.772;8.754;2022-11-20T05:39:00;1.20;;;1.20;;
16510;SDS011;8368;48.772;8.754;2022-11-20T05:41:25;1.10;;;1.10;;
16510;SDS011;8368;48.772;8.754;2022-11-20T05:43:51;1.20;;;1.20;;
16510;SDS011;8368;48.772;8.754;2022-11-20T05:46:18;1.00;;;1.00;;
16510;SDS011;8368;48.772;8.754;2022-11-20T05:48:45;0.83;;;0.83;;
16510;SDS011;8368;48.772;8.754;2022-11-20T05:51:13;1.00;;;1.00;;
16510;SDS011;8368;48.772;8.754;2022-11-20T05:53:40;1.60;;;1.00;;
16510;SDS011;8368;48.772;8.754;2022-11-20T05:56:10;1.03;;;1.03;;
16510;SDS011;8368;48.772;8.754;2022-11-20T05:58:46;0.80;;;0.80;;
16510;SDS011;8368;48.772;8.754;2022-11-20T06:03:43;1.07;;;1.07;;
16510;SDS011;8368;48.772;8.754;2022-11-20T06:06:11;1.10;;;1.10;;
16510;SDS011;8368;48.772;8.754;2022-11-20T06:08:37;1.13;;;1.13;;
16510;SDS011;8368;48.772;8.754;2022-11-20T06:11:03;1.20;;;1.20;;
16510;SDS011;8368;48.772;8.754;2022-11-20T06:13:30;1.13;;;1.03;;
16510;SDS011;8368;48.772;8.754;2022-11-20T06:15:55;1.07;;;1.00;;
16510;SDS011;8368;48.772;8.754;2022-11-20T06:18:21;1.00;;;1.00;;
16510;SDS011;8368;48.772;8.754;2022-11-20T06:20:46;1.33;;;0.97;;
16510;SDS011;8368;48.772;8.754;2022-11-20T06:23:12;1.00;;;1.00;;
16510;SDS011;8368;48.772;8.754;2022-11-20T06:25:38;0.90;;;0.90;;
16510;SDS011;8368;48.772;8.754;2022-11-20T06:28:05;0.70;;;0.70;;
16510;SDS011;8368;48.772;8.754;2022-11-20T06:30:30;1.30;;;1.30;;
16510;SDS011;8368;48.772;8.754;2022-11-20T06:32:56;0.90;;;0.90;;
16510;SDS011;8368;48.772;8.754;2022-11-20T06:35:21;1.03;;;1.03;;
16510;SDS011;8368;48.772;8.754;2022-11-20T06:37:47;1.03;;;1.03;;
16510;SDS011;8368;48.772;8.754;2022-11-20T06:40:12;2.60;;;1.40;;
16510;SDS011;8368;48.772;8.754;2022-11-20T06:42:38;1.10;;;1.00;;
16510;SDS011;8368;48.772;8.754;2022-11-20T06:45:03;1.50;;;1.00;;
16510;SDS011;8368;48.772;8.754;2022-11-20T06:47:29;0.93;;;0.93;;
16510;SDS011;8368;48.772;8.754;2022-11-20T06:49:55;1.10;;;1.10;;
16510;SDS011;8368;48.772;8.754;2022-11-20T06:52:20;1.23;;;1.20;;
16510;SDS011;8368;48.772;8.754;2022-11-20T06:54:46;1.37;;;1.37;;
16510;SDS011;8368;48.772;8.754;2022-11-20T06:57:12;1.20;;;1.20;;
16510;SDS011;8368;48.772;8.754;2022-11-20T06:59:37;1.33;;;1.33;;
16510;SDS011;8368;48.772;8.754;2022-11-20T07:02:03;1.50;;;1.50;;
16510;SDS011;8368;48.772;8.754;2022-11-20T07:04:28;1.70;;;1.60;;
16510;SDS011;8368;48.772;8.754;2022-11-20T07:06:54;1.57;;;1.57;;
16510;SDS011;8368;48.772;8.754;2022-11-20T07:09:19;1.50;;;1.40;;
16510;SDS011;8368;48.772;8.754;2022-11-20T07:11:45;1.00;;;1.00;;
16510;SDS011;8368;48.772;8.754;2022-11-20T07:14:10;1.30;;;1.20;;
16510;SDS011;8368;48.772;8.754;2022-11-20T07:16:36;0.93;;;0.93;;
16510;SDS011;8368;48.772;8.754;2022-11-20T07:19:02;0.90;;;0.90;;
16510;SDS011;8368;48.772;8.754;2022-11-20T07:21:27;0.90;;;0.90;;
16510;SDS011;8368;48.772;8.754;2022-11-20T07:23:53;1.10;;;1.10;;
16510;SDS011;8368;48.772;8.754;2022-11-20T07:26:18;2.30;;;1.13;;
16510;SDS011;8368;48.772;8.754;2022-11-20T07:28:44;1.00;;;1.00;;
16510;SDS011;8368;48.772;8.754;2022-11-20T07:31:10;1.40;;;1.40;;
16510;SDS011;8368;48.772;8.754;2022-11-20T07:33:36;1.00;;;1.00;;
16510;SDS011;8368;48.772;8.754;2022-11-20T07:36:02;1.00;;;1.00;;
16510;SDS011;8368;48.772;8.754;2022-11-20T07:38:28;1.23;;;1.13;;
16510;SDS011;8368;48.772;8.754;2022-11-20T07:40:54;1.07;;;1.00;;
16510;SDS011;8368;48.772;8.754;2022-11-20T07:43:26;1.23;;;0.87;;
16510;SDS011;8368;48.772;8.754;2022-11-20T07:45:54;1.10;;;0.93;;
16510;SDS011;8368;48.772;8.754;2022-11-20T07:48:23;1.03;;;1.00;;
16510;SDS011;8368;48.772;8.754;2022-11-20T07:50:52;1.07;;;0.90;;
16510;SDS011;8368;48.772;8.754;2022-11-20T07:53:19;0.90;;;0.90;;
16510;SDS011;8368;48.772;8.754;2022-11-20T07:55:45;0.90;;;0.90;;
16510;SDS011;8368;48.772;8.754;2022-11-20T07:58:11;0.80;;;0.80;;
16510;SDS011;8368;48.772;8.754;2022-11-20T08:00:37;0.73;;;0.73;;
16510;SDS011;8368;48.772;8.754;2022-11-20T08:03:05;0.93;;;0.93;;
16510;SDS011;8368;48.772;8.754;2022-11-20T08:05:31;0.80;;;0.80;;
16510;SDS011;8368;48.772;8.754;2022-11-20T08:07:57;3.17;;;0.80;;
16510;SDS011;8368;48.772;8.754;2022-11-20T08:10:22;0.87;;;0.83;;
16510;SDS011;8368;48.772;8.754;2022-11-20T08:12:49;0.97;;;0.97;;
16510;SDS011;8368;48.772;8.754;2022-11-20T08:15:34;0.97;;;0.97;;
16510;SDS011;8368;48.772;8.754;2022-11-20T08:18:08;2.63;;;1.20;;
16510;SDS011;8368;48.772;8.754;2022-11-20T08:20:36;1.00;;;0.90;;
16510;SDS011;8368;48.772;8.754;2022-11-20T08:23:02;1.40;;;1.40;;
16510;SDS011;8368;48.772;8.754;2022-11-20T08:25:30;1.20;;;1.20;;
16510;SDS011;8368;48.772;8.754;2022-11-20T08:28:00;1.90;;;1.80;;
16510;SDS011;8368;48.772;8.754;2022-11-20T08:30:28;1.67;;;1.60;;
16510;SDS011;8368;48.772;8.754;2022-11-20T08:32:54;1.50;;;1.50;;
16510;SDS011;8368;48.772;8.754;2022-11-20T08:35:25;0.90;;;0.90;;
16510;SDS011;8368;48.772;8.754;2022-11-20T08:37:51;1.00;;;1.00;;
16510;SDS011;8368;48.772;8.754;2022-11-20T08:40:16;0.93;;;0.93;;
16510;SDS011;8368;48.772;8.754;2022-11-20T08:42:46;0.80;;;0.80;;
16510;SDS011;8368;48.772;8.754;2022-11-20T08:45:12;1.07;;;1.03;;
16510;SDS011;8368;48.772;8.754;2022-11-20T08:47:38;0.73;;;0.73;;
16510;SDS011;8368;48.772;8.754;2022-11-20T08:50:03;0.60;;;0.60;;
16510;SDS011;8368;48.772;8.754;2022-11-20T08:52:29;1.07;;;0.80;;
16510;SDS011;8368;48.772;8.754;2022-11-20T08:54:55;2.83;;;1.23;;
16510;SDS011;8368;48.772;8.754;2022-11-20T08:57:20;1.07;;;0.97;;
16510;SDS011;8368;48.772;8.754;2022-11-20T08:59:46;0.87;;;0.87;;
16510;SDS011;8368;48.772;8.754;2022-11-20T09:02:11;1.40;;;1.40;;
16510;SDS011;8368;48.772;8.754;2022-11-20T09:04:37;1.97;;;1.80;;
16510;SDS011;8368;48.772;8.754;2022-11-20T09:07:02;1.50;;;1.50;;
16510;SDS011;8368;48.772;8.754;2022-11-20T09:09:28;1.20;;;1.20;;
16510;SDS011;8368;48.772;8.754;2022-11-20T09:11:53;1.23;;;1.10;;
16510;SDS011;8368;48.772;8.754;2022-11-20T09:14:19;1.20;;;1.20;;
16510;SDS011;8368;48.772;8.754;2022-11-20T09:16:46;1.20;;;1.20;;
16510;SDS011;8368;48.772;8.754;2022-11-20T09:19:11;1.33;;;1.33;;
16510;SDS011;8368;48.772;8.754;2022-11-20T09:21:37;1.70;;;1.60;;
16510;SDS011;8368;48.772;8.754;2022-11-20T09:24:02;1.70;;;1.60;;
16510;SDS011;8368;48.772;8.754;2022-11-20T09:26:29;1.50;;;1.50;;
16510;SDS011;8368;48.772;8.754;2022-11-20T09:28:55;1.67;;;1.57;;
16510;SDS011;8368;48.772;8.754;2022-11-20T09:31:24;2.33;;;1.63;;
16510;SDS011;8368;48.772;8.754;2022-11-20T09:33:50;1.50;;;1.50;;
16510;SDS011;8368;48.772;8.754;2022-11-20T09:36:16;2.20;;;2.00;;
16510;SDS011;8368;48.772;8.754;2022-11-20T09:38:43;2.93;;;2.23;;
16510;SDS011;8368;48.772;8.754;2022-11-20T09:41:17;2.87;;;1.70;;
16510;SDS011;8368;48.772;8.754;2022-11-20T09:44:11;2.00;;;2.00;;
16510;SDS011;8368;48.772;8.754;2022-11-20T09:56:00;1.80;;;1.40;;
16510;SDS011;8368;48.772;8.754;2022-11-20T10:01:19;1.30;;;1.30;;
16510;SDS011;8368;48.772;8.754;2022-11-20T10:04:09;1.20;;;1.20;;
16510;SDS011;8368;48.772;8.754;2022-11-20T10:12:05;0.90;;;0.90;;
16510;SDS011;8368;48.772;8.754;2022-11-20T10:17:52;1.50;;;1.10;;
16510;SDS011;8368;48.772;8.754;2022-11-20T10:31:41;1.77;;;1.67;;
16510;SDS011;8368;48.772;8.754;2022-11-20T10:34:21;2.20;;;2.00;;
16510;SDS011;8368;48.772;8.754;2022-11-20T10:36:49;3.33;;;2.10;;
16510;SDS011;8368;48.772;8.754;2022-11-20T10:39:42;2.53;;;2.33;;
16510;SDS011;8368;48.772;8.754;2022-11-20T10:42:14;2.47;;;2.17;;
16510;SDS011;8368;48.772;8.754;2022-11-20T10:44:50;2.70;;;2.50;;
16510;SDS011;8368;48.772;8.754;2022-11-20T10:47:28;1.87;;;1.77;;
16510;SDS011;8368;48.772;8.754;2022-11-20T10:49:57;1.90;;;1.80;;
16510;SDS011;8368;48.772;8.754;2022-11-20T11:00:25;2.00;;;1.90;;
16510;SDS011;8368;48.772;8.754;2022-11-20T11:02:52;1.70;;;1.60;;
16510;SDS011;8368;48.772;8.754;2022-11-20T11:08:00;3.30;;;2.03;;
16510;SDS011;8368;48.772;8.754;2022-11-20T11:10:28;3.77;;;1.87;;
16510;SDS011;8368;48.772;8.754;2022-11-20T11:13:23;2.53;;;1.90;;
16510;SDS011;8368;48.772;8.754;2022-11-20T11:15:50;3.37;;;1.80;;
16510;SDS011;8368;48.772;8.754;2022-11-20T11:18:29;4.67;;;1.97;;
16510;SDS011;8368;48.772;8.754;2022-11-20T11:20:57;2.13;;;1.57;;
16510;SDS011;8368;48.772;8.754;2022-11-20T11:23:36;3.77;;;2.07;;
16510;SDS011;8368;48.772;8.754;2022-11-20T11:26:03;2.93;;;2.23;;
16510;SDS011;8368;48.772;8.754;2022-11-20T11:28:30;2.40;;;1.60;;
16510;SDS011;8368;48.772;8.754;2022-11-20T11:30:56;2.67;;;1.40;;
16510;SDS011;8368;48.772;8.754;2022-11-20T11:33:26;2.50;;;1.50;;
16510;SDS011;8368;48.772;8.754;2022-11-20T11:35:54;1.93;;;1.70;;
16510;SDS011;8368;48.772;8.754;2022-11-20T11:38:41;2.20;;;1.80;;
16510;SDS011;8368;48.772;8.754;2022-11-20T11:41:09;1.53;;;1.43;;
16510;SDS011;8368;48.772;8.754;2022-11-20T11:52:43;3.80;;;2.10;;
16510;SDS011;8368;48.772;8.754;2022-11-20T11:55:17;2.20;;;1.73;;
16510;SDS011;8368;48.772;8.754;2022-11-20T12:01:07;2.17;;;1.70;;
16510;SDS011;8368;48.772;8.754;2022-11-20T12:04:04;1.77;;;1.27;;
16510;SDS011;8368;48.772;8.754;2022-11-20T12:09:46;2.73;;;1.40;;
16510;SDS011;8368;48.772;8.754;2022-11-20T12:12:20;1.70;;;1.23;;
16510;SDS011;8368;48.772;8.754;2022-11-20T12:14:52;1.30;;;1.30;;
16510;SDS011;8368;48.772;8.754;2022-11-20T12:17:19;1.27;;;1.23;;
16510;SDS011;8368;48.772;8.754;2022-11-20T12:19:45;1.27;;;1.27;;
16510;SDS011;8368;48.772;8.754;2022-11-20T12:30:23;2.00;;;1.80;;
16510;SDS011;8368;48.772;8.754;2022-11-20T12:39:22;2.30;;;1.00;;
16510;SDS011;8368;48.772;8.754;2022-11-20T12:47:59;0.90;;;0.90;;
16510;SDS011;8368;48.772;8.754;2022-11-20T12:50:52;1.00;;;1.00;;
16510;SDS011;8368;48.772;8.754;2022-11-20T12:53:48;1.53;;;1.20;;
16510;SDS011;8368;48.772;8.754;2022-11-20T12:56:31;1.00;;;1.00;;
16510;SDS011;8368;48.772;8.754;2022-11-20T13:07:05;1.63;;;1.00;;
16510;SDS011;8368;48.772;8.754;2022-11-20T13:09:34;2.10;;;0.97;;
16510;SDS011;8368;48.772;8.754;2022-11-20T13:20:21;2.27;;;1.90;;
16510;SDS011;8368;48.772;8.754;2022-11-20T13:22:50;4.23;;;1.93;;
16510;SDS011;8368;48.772;8.754;2022-11-20T13:25:29;2.40;;;2.00;;
16510;SDS011;8368;48.772;8.754;2022-11-20T13:27:58;1.87;;;1.37;;
16510;SDS011;8368;48.772;8.754;2022-11-20T13:30:26;4.70;;;2.40;;
16510;SDS011;8368;48.772;8.754;2022-11-20T13:32:54;1.50;;;1.40;;
16510;SDS011;8368;48.772;8.754;2022-11-20T13:35:30;3.17;;;1.60;;
16510;SDS011;8368;48.772;8.754;2022-11-20T13:40:28;5.30;;;3.20;;
16510;SDS011;8368;48.772;8.754;2022-11-20T13:42:55;2.00;;;1.00;;
16510;SDS011;8368;48.772;8.754;2022-11-20T13:45:42;2.10;;;1.30;;
16510;SDS011;8368;48.772;8.754;2022-11-20T13:48:19;1.40;;;1.30;;
16510;SDS011;8368;48.772;8.754;2022-11-20T13:50:54;1.53;;;1.00;;
16510;SDS011;8368;48.772;8.754;2022-11-20T13:53:48;3.50;;;1.20;;
16510;SDS011;8368;48.772;8.754;2022-11-20T13:56:23;2.37;;;1.33;;
16510;SDS011;8368;48.772;8.754;2022-11-20T13:59:02;1.30;;;1.20;;
16510;SDS011;8368;48.772;8.754;2022-11-20T14:01:31;2.77;;;1.43;;
16510;SDS011;8368;48.772;8.754;2022-11-20T14:03:57;1.27;;;1.17;;
16510;SDS011;8368;48.772;8.754;2022-11-20T14:06:30;1.80;;;1.10;;
16510;SDS011;8368;48.772;8.754;2022-11-20T14:08:58;1.00;;;1.00;;
16510;SDS011;8368;48.772;8.754;2022-11-20T14:11:33;1.30;;;0.90;;
16510;SDS011;8368;48.772;8.754;2022-11-20T14:14:00;1.53;;;0.97;;
16510;SDS011;8368;48.772;8.754;2022-11-20T14:16:37;1.20;;;1.10;;
16510;SDS011;8368;48.772;8.754;2022-11-20T14:21:45;1.20;;;1.10;;
16510;SDS011;8368;48.772;8.754;2022-11-20T14:24:12;3.00;;;1.10;;
16510;SDS011;8368;48.772;8.754;2022-11-20T14:26:41;1.37;;;1.27;;
16510;SDS011;8368;48.772;8.754;2022-11-20T14:29:15;0.80;;;0.80;;
16510;SDS011;8368;48.772;8.754;2022-11-20T14:31:42;2.40;;;1.10;;
16510;SDS011;8368;48.772;8.754;2022-11-20T14:34:15;1.17;;;1.07;;
16510;SDS011;8368;48.772;8.754;2022-11-20T14:36:44;2.77;;;1.40;;
16510;SDS011;8368;48.772;8.754;2022-11-20T14:39:12;2.33;;;1.00;;
16510;SDS011;8368;48.772;8.754;2022-11-20T14:41:52;2.37;;;1.63;;
16510;SDS011;8368;48.772;8.754;2022-11-20T14:44:19;1.60;;;1.60;;
16510;SDS011;8368;48.772;8.754;2022-11-20T14:46:51;1.20;;;1.17;;
16510;SDS011;8368;48.772;8.754;2022-11-20T14:49:17;1.47;;;1.10;;
16510;SDS011;8368;48.772;8.754;2022-11-20T14:51:43;3.10;;;1.20;;
16510;SDS011;8368;48.772;8.754;2022-11-20T14:54:19;1.37;;;1.27;;
16510;SDS011;8368;48.772;8.754;2022-11-20T14:56:54;1.73;;;1.60;;
16510;SDS011;8368;48.772;8.754;2022-11-20T14:59:25;1.77;;;1.50;;
16510;SDS011;8368;48.772;8.754;2022-11-20T15:01:56;1.17;;;1.13;;
16510;SDS011;8368;48.772;8.754;2022-11-20T15:04:24;1.40;;;1.30;;
16510;SDS011;8368;48.772;8.754;2022-11-20T15:06:51;4.00;;;1.00;;
16510;SDS011;8368;48.772;8.754;2022-11-20T15:09:18;1.53;;;1.53;;
16510;SDS011;8368;48.772;8.754;2022-11-20T15:12:00;1.40;;;1.23;;
16510;SDS011;8368;48.772;8.754;2022-11-20T15:14:28;2.07;;;1.87;;
16510;SDS011;8368;48.772;8.754;2022-11-20T15:16:55;2.83;;;1.83;;
16510;SDS011;8368;48.772;8.754;2022-11-20T15:19:22;2.40;;;1.87;;
16510;SDS011;8368;48.772;8.754;2022-11-20T15:21:49;2.87;;;2.50;;
16510;SDS011;8368;48.772;8.754;2022-11-20T15:24:15;4.80;;;2.80;;
16510;SDS011;8368;48.772;8.754;2022-11-20T15:26:41;3.83;;;2.30;;
16510;SDS011;8368;48.772;8.754;2022-11-20T15:29:11;2.70;;;1.50;;
16510;SDS011;8368;48.772;8.754;2022-11-20T15:31:39;4.00;;;1.90;;
16510;SDS011;8368;48.772;8.754;2022-11-20T15:34:12;2.60;;;2.30;;
16510;SDS011;8368;48.772;8.754;2022-11-20T15:36:40;1.67;;;1.57;;
16510;SDS011;8368;48.772;8.754;2022-11-20T15:39:06;2.83;;;2.20;;
16510;SDS011;8368;48.772;8.754;2022-11-20T15:41:32;3.57;;;1.90;;
16510;SDS011;8368;48.772;8.754;2022-11-20T15:44:02;3.30;;;3.00;;
16510;SDS011;8368;48.772;8.754;2022-11-20T15:46:29;6.40;;;2.20;;
16510;SDS011;8368;48.772;8.754;2022-11-20T15:49:02;5.90;;;3.50;;
16510;SDS011;8368;48.772;8.754;2022-11-20T15:51:29;3.63;;;2.67;;
16510;SDS011;8368;48.772;8.754;2022-11-20T15:53:56;2.03;;;1.90;;
16510;SDS011;8368;48.772;8.754;2022-11-20T15:56:23;3.77;;;2.73;;
16510;SDS011;8368;48.772;8.754;2022-11-20T15:58:49;3.73;;;1.67;;
16510;SDS011;8368;48.772;8.754;2022-11-20T16:01:15;1.60;;;1.60;;
16510;SDS011;8368;48.772;8.754;2022-11-20T16:03:43;3.30;;;3.00;;
16510;SDS011;8368;48.772;8.754;2022-11-20T16:06:09;5.07;;;2.80;;
16510;SDS011;8368;48.772;8.754;2022-11-20T16:08:34;3.30;;;2.00;;
16510;SDS011;8368;48.772;8.754;2022-11-20T16:11:00;2.23;;;2.03;;
16510;SDS011;8368;48.772;8.754;2022-11-20T16:13:26;1.93;;;1.73;;
16510;SDS011;8368;48.772;8.754;2022-11-20T16:16:18;1.80;;;1.70;;
16510;SDS011;8368;48.772;8.754;2022-11-20T16:18:46;3.73;;;2.13;;
16510;SDS011;8368;48.772;8.754;2022-11-20T16:21:12;2.03;;;1.77;;
16510;SDS011;8368;48.772;8.754;2022-11-20T16:23:40;3.13;;;2.30;;
16510;SDS011;8368;48.772;8.754;2022-11-20T16:26:14;3.10;;;2.77;;
16510;SDS011;8368;48.772;8.754;2022-11-20T16:28:41;2.33;;;2.13;;
16510;SDS011;8368;48.772;8.754;2022-11-20T16:31:08;4.13;;;2.53;;
16510;SDS011;8368;48.772;8.754;2022-11-20T16:33:38;4.37;;;3.50;;
16510;SDS011;8368;48.772;8.754;2022-11-20T16:36:12;11.18;;;6.45;;
16510;SDS011;8368;48.772;8.754;2022-11-20T16:38:38;17.13;;;9.93;;
16510;SDS011;8368;48.772;8.754;2022-11-20T16:41:05;18.53;;;10.87;;
16510;SDS011;8368;48.772;8.754;2022-11-20T16:43:38;7.73;;;5.60;;
16510;SDS011;8368;48.772;8.754;2022-11-20T16:46:10;5.73;;;5.23;;
16510;SDS011;8368;48.772;8.754;2022-11-20T16:48:35;4.97;;;3.43;;
16510;SDS011;8368;48.772;8.754;2022-11-20T16:51:01;4.23;;;3.83;;
16510;SDS011;8368;48.772;8.754;2022-11-20T16:53:27;3.20;;;2.90;;
16510;SDS011;8368;48.772;8.754;2022-11-20T16:55:52;3.20;;;2.77;;